Flight Track Log - Related Links

Times and Time Zones

All times are in EDT time to prevent confusion due to time zone crossing. See the UAL6858 flight status page for this flight to view local times or setup timezone preferences in your user account.

Time Position Orientation Groundspeed Altitude Reporting Facility
EDT Latitude Longitude Course Direction KTS MPH feet Rate Location/Type
Sat 12:27:49 PM 41.9781 -87.8925 191° South 171 197 1,900  Level Chicago Center
Sat 12:28:21 PM 41.9500 -87.9000 191° South 227 261 3,700 3,823 Climbing Chicago TRACON
Sat 12:29:53 PM 41.9128 -88.0197 247° West 275 316 9,800 3,490 Climbing Chicago Center
Sat 12:30:54 PM 41.9103 -88.1361 268° West 309 356 12,600 2,488 Climbing Chicago Center
Sat 12:31:56 PM 41.9075 -88.2706 268° West 356 410 14,900 2,758 Climbing Chicago Center
Sat 12:32:58 PM 41.9039 -88.4339 268° West 367 422 18,300 3,532 Climbing Chicago Center
Sat 12:34:00 PM 41.8917 -88.5767 263° West 382 440 22,200 2,256 Climbing Chicago Center
Sat 12:35:03 PM 41.8775 -88.7228 263° West 397 457 23,000 919 Climbing Chicago Center
Sat 12:36:04 PM 41.8656 -88.8742 264° West 409 471 24,100 1,610 Climbing Chicago Center
Sat 12:37:06 PM 41.8561 -89.0278 265° West 416 479 26,300 2,468 Climbing Chicago Center
Sat 12:38:08 PM 41.8436 -89.2233 265° West 439 505 29,200 2,516 Climbing Chicago Center
Sat 12:39:10 PM 41.8325 -89.3931 265° West 456 525 31,500 2,323 Climbing Chicago Center
Sat 12:40:12 PM 41.8303 -89.5586 269° West 450 518 34,000 2,226 Climbing Chicago Center
Sat 12:41:14 PM 41.8253 -89.7239 268° West 447 514 36,100 2,081 Climbing Chicago Center
Sat 12:42:16 PM 41.8169 -89.8867 266° West 442 509 38,300 1,790 Climbing Chicago Center
Sat 12:43:18 PM 41.8100 -90.0561 267° West 436 502 39,800 823 Climbing Chicago Center
Sat 12:44:20 PM 41.8006 -90.2186 266° West 438 504 40,000 97 Climbing Chicago Center
Sat 12:45:22 PM 41.7886 -90.4189 265° West 450 518 40,000  Level Chicago Center
Sat 12:46:24 PM 41.7794 -90.5819 266° West 445 512 40,000  Level Chicago Center
Sat 12:47:26 PM 41.7678 -90.7461 265° West 445 512 40,000  Level Chicago Center
Sat 12:48:28 PM 41.7589 -90.9100 266° West 446 513 40,000  Level Chicago Center
Sat 12:49:30 PM 41.7489 -91.0744 265° West 446 513 40,000  Level Chicago Center
Sat 12:50:32 PM 41.7392 -91.2700 266° West 442 509 40,000  Level Chicago Center
Sat 12:51:34 PM 41.7289 -91.4300 265° West 437 503 40,000  Level Chicago Center
Sat 12:52:36 PM 41.7186 -91.5914 265° West 436 502 40,000  Level Chicago Center
Sat 12:53:37 PM 41.7083 -91.7517 265° West 435 501 40,000  Level Chicago Center
Sat 12:54:39 PM 41.6958 -91.9097 264° West 432 497 40,000  Level Chicago Center
Sat 12:55:41 PM 41.6839 -92.0725 264° West 437 503 40,000  Level Chicago Center
Sat 12:56:43 PM 41.6692 -92.2656 264° West 437 503 40,000  Level Chicago Center
Sat 12:57:45 PM 41.6578 -92.4247 265° West 433 498 40,000  Level Chicago Center
Sat 12:58:47 PM 41.6478 -92.5856 265° West 435 501 40,000  Level Chicago Center
Sat 12:59:36 PM 41.6375 -92.7117 264° West 434 499 40,000  Level Minneapolis Center
Sat 01:00:37 PM 41.6283 -92.8383 265° West 433 498 40,000  Level Minneapolis Center
Sat 01:01:40 PM 41.6097 -93.0611 264° West 434 499 40,000  Level Minneapolis Center
Sat 01:02:42 PM 41.5967 -93.2194 264° West 435 501 40,000  Level Minneapolis Center
Sat 01:03:44 PM 41.5850 -93.3747 264° West 429 494 40,000  Level Minneapolis Center
Sat 01:04:58 PM 41.5714 -93.5308 263° West 429 494 40,000  Level Minneapolis Center
Sat 01:06:00 PM 41.5569 -93.7172 264° West 426 490 40,000  Level Minneapolis Center
Sat 01:07:02 PM 41.5400 -93.9064 263° West 431 496 40,000  Level Minneapolis Center
Sat 01:08:05 PM 41.5264 -94.0647 264° West 433 498 40,000  Level Minneapolis Center
Sat 01:09:07 PM 41.5128 -94.2228 263° West 433 498 40,000  Level Minneapolis Center
Sat 01:10:09 PM 41.4928 -94.4075 262° West 431 496 40,000  Level Minneapolis Center
Sat 01:11:11 PM 41.4783 -94.5661 263° West 429 494 40,000  Level Minneapolis Center
Sat 01:12:25 PM 41.4633 -94.7267 263° West 433 498 40,000  Level Minneapolis Center
Sat 01:13:27 PM 41.4425 -94.9158 262° West 429 494 40,000  Level Minneapolis Center
Sat 01:14:29 PM 41.4292 -95.0731 264° West 428 493 40,000  Level Minneapolis Center
Sat 01:15:31 PM 41.4150 -95.2333 263° West 433 498 40,000  Level Minneapolis Center
Sat 01:16:34 PM 41.3950 -95.4225 262° West 432 497 40,000  Level Minneapolis Center
Sat 01:17:36 PM 41.3786 -95.5800 262° West 431 496 40,000  Level Minneapolis Center
Sat 01:18:37 PM 41.3661 -95.7042 262° West 432 497 40,000  Level Minneapolis Center
Sat 01:19:40 PM 41.3481 -95.8950 263° West 434 499 40,000  Level Minneapolis Center
Sat 01:20:42 PM 41.3314 -96.0531 262° West 432 497 40,000  Level Minneapolis Center
Sat 01:21:43 PM 41.3169 -96.1800 261° West 433 498 40,000  Level Minneapolis Center
Sat 01:22:46 PM 41.2939 -96.3878 262° West 433 498 40,000  Level Minneapolis Center
Sat 01:23:48 PM 41.2761 -96.5461 262° West 433 498 40,000  Level Minneapolis Center
Sat 01:24:50 PM 41.2581 -96.7039 261° West 433 498 40,000  Level Minneapolis Center
Sat 01:25:52 PM 41.2358 -96.8939 261° West 433 498 40,000  Level Minneapolis Center
Sat 01:26:54 PM 41.2181 -97.0528 262° West 435 501 40,000  Level Minneapolis Center
Sat 01:27:56 PM 41.1997 -97.2125 261° West 437 503 40,000  Level Minneapolis Center
Sat 01:28:58 PM 41.1808 -97.3722 261° West 438 504 40,000  Level Minneapolis Center
Sat 01:30:12 PM 41.1603 -97.5461 261° West 438 504 40,000  Level Minneapolis Center
Sat 01:31:15 PM 41.1375 -97.7375 261° West 437 503 40,000  Level Minneapolis Center
Sat 01:32:17 PM 41.1178 -97.8983 261° West 440 506 40,000  Level Minneapolis Center
Sat 01:33:19 PM 41.0978 -98.0589 261° West 441 507 40,000  Level Minneapolis Center
Sat 01:34:21 PM 41.0772 -98.2189 260° West 440 506 40,000  Level Minneapolis Center
Sat 01:35:23 PM 41.0572 -98.3800 261° West 441 507 40,000  Level Minneapolis Center
Sat 01:36:25 PM 41.0383 -98.5544 262° West 438 504 40,000  Level Minneapolis Center
Sat 01:37:27 PM 41.0178 -98.7128 260° West 437 503 40,000  Level Minneapolis Center
Sat 01:38:29 PM 40.9992 -98.8753 261° West 446 513 40,000  Level Minneapolis Center
Sat 01:39:31 PM 40.9803 -99.0667 263° West 440 506 40,000  Level Minneapolis Center
Sat 01:40:33 PM 40.9631 -99.2217 262° West 435 501 40,000  Level Minneapolis Center
Sat 01:41:35 PM 40.9444 -99.3808 261° West 436 502 40,000  Level Minneapolis Center
Sat 01:42:37 PM 40.9258 -99.5400 261° West 438 504 40,000  Level Minneapolis Center
Sat 01:43:39 PM 40.9069 -99.6986 261° West 438 504 40,000  Level Minneapolis Center
Sat 01:44:41 PM 40.8844 -99.8567 259° West 437 503 40,000 -532 Level Minneapolis Center
Sat 01:45:43 PM 40.8553 -100.0431 258° West 435 501 38,900 -968 Descending Minneapolis Center
Sat 01:46:45 PM 40.8319 -100.1961 259° West 430 495 38,000 -435 Descending Minneapolis Center
Sat 01:47:47 PM 40.8078 -100.3492 258° West 427 491 38,000  Level Minneapolis Center
Sat 01:48:49 PM 40.7842 -100.5033 259° West 427 491 38,000  Level Minneapolis Center
Sat 01:50:09 PM 40.7450 -100.7072 256° West 435 501 38,000  Level Denver Center
Sat 01:51:11 PM 40.7222 -100.8628 259° West 439 505 38,000  Level Denver Center
Sat 01:52:13 PM 40.6942 -101.0361 258° West 431 496 38,000  Level Denver Center
Sat 01:53:15 PM 40.6714 -101.1828 258° West 427 491 38,000  Level Denver Center
Sat 01:54:17 PM 40.6439 -101.3531 258° West 427 491 38,000  Level Denver Center
Sat 01:55:19 PM 40.6194 -101.4997 258° West 428 493 38,000  Level Denver Center
Sat 01:56:21 PM 40.5906 -101.6708 258° West 429 494 38,000  Level Denver Center
Sat 01:57:23 PM 40.5656 -101.8183 257° West 431 496 38,000 -48 Level Denver Center
Sat 01:58:25 PM 40.5381 -101.9914 258° West 433 498 37,900 -387 Descending Denver Center
Sat 01:59:27 PM 40.5133 -102.1358 257° West 424 488 37,200 -774 Descending Denver Center
Sat 02:00:29 PM 40.4856 -102.3028 258° West 419 482 36,300 -726 Descending Denver Center
Sat 02:01:31 PM 40.4597 -102.4444 257° West 416 479 35,700 -581 Descending Denver Center
Sat 02:02:33 PM 40.4339 -102.5828 256° West 409 471 35,100 -677 Descending Denver Center
Sat 02:03:35 PM 40.4064 -102.7394 257° West 403 464 34,300 -726 Descending Denver Center
Sat 02:04:37 PM 40.3811 -102.8794 257° West 397 457 33,600 -574 Descending Denver Center
Sat 02:05:51 PM 40.3561 -103.0175 257° West 392 451 33,000 -613 Descending Denver Center
Sat 02:06:54 PM 40.3261 -103.1842 257° West 392 451 32,200 -1,488 Descending Denver Center
Sat 02:07:56 PM 40.2969 -103.3439 257° West 377 434 29,900 -2,032 Descending Denver Center
Sat 02:08:58 PM 40.2725 -103.4756 256° West 372 428 28,000 -2,516 Descending Denver Center
Sat 02:10:00 PM 40.2475 -103.6064 256° West 372 428 24,700 -2,952 Descending Denver Center
Sat 02:11:02 PM 40.2203 -103.7519 256° West 398 458 21,900 -1,742 Descending Denver Center
Sat 02:12:04 PM 40.1836 -103.8875 251° West 363 418 21,100 -919 Descending Denver Center
Sat 02:13:06 PM 40.1367 -103.9925 240° Southwest 333 383 20,000 -1,597 Descending Denver Center
Sat 02:14:08 PM 40.0853 -104.1000 238° Southwest 323 372 17,800 -2,032 Descending Denver Center
Sat 02:15:10 PM 40.0408 -104.1975 239° Southwest 315 362 15,800 -1,597 Descending Denver Center
Sat 02:16:12 PM 39.9942 -104.2981 239° Southwest 304 350 14,500 -1,113 Descending Denver Center
Sat 02:17:14 PM 39.9517 -104.3894 239° Southwest 297 342 13,500 -1,009 Descending Denver Center
Sat 02:18:05 PM 39.9167 -104.4667 239° Southwest 293 337 12,600 -1,189 Descending Denver TRACON
Sat 02:19:05 PM 39.8500 -104.5000 201° Southwest 280 322 11,300 -1,050 Descending Denver TRACON
Sat 02:20:05 PM 39.7833 -104.5000 180° South 241 277 10,500 -1,050 Descending Denver TRACON
Sat 02:21:05 PM 39.7167 -104.5000 180° South 243 280 9,200 -1,300 Descending Denver TRACON
Sat 02:22:05 PM 39.6833 -104.5667 237° Southwest 246 283 7,900 -895 Descending Denver TRACON
Sat 02:22:59 PM 39.7167 -104.6167 311° West 211 243 7,500 -579 Descending Denver TRACON
Sat 02:23:59 PM 39.7667 -104.6500 333° Northwest 178 205 6,800 -750 Descending Denver TRACON
Sat 02:24:59 PM 39.8000 -104.6500 360° North 132 152 6,000 -733 Descending Denver TRACON
Sat 02:25:29 PM 39.8175 -104.6417 20° North 137 158 5,700 -391 Descending Denver Center
Sat 02:26:31 PM 39.8497 -104.6411 North 114 131 5,400 -290 Descending Denver Center
Sat 02:28:00 PM 39.8500 -104.6667 339° North  Level FlightAware Approximate
Sat 02:35:00 PM 39.8617 -104.6732 339° North  Level Estimated
Sat 02:36:00 PM 39.8617 -104.6732 339° North  Level Estimated
Sat 02:37:00 PM 39.8617 -104.6732 339° North  Level Estimated

Login

Don't have an account? Register now (free) for customized features, flight alerts, and more!